< Typhoon 195618 1956 Season Typhoon 195620 >
Typhoon 195619 (KAREN/LUCILLE)
General InformationTrack Information on Google Maps || Disaster Info.ResourceGoogle EarthGE AnimationAtom FeedGeoJSON
Detalied Best Track (Time Zone = UTC)
Year Month Day Hour Lat. Long. Pressure (hPa) Wind (kt) Class Image Chart
1956 11 9 06 9.0 153.0 1005 0 2 -- Chart
1956 11 9 12 9.9 152.7 1005 0 2 -- Chart
1956 11 9 18 10.6 152.5 1005 0 2 -- Chart
1956 11 10 00 11.1 152.3 1004 0 2 -- Chart
1956 11 10 06 11.1 151.7 1004 0 2 -- Chart
1956 11 10 12 10.9 151.3 1004 0 2 -- Chart
1956 11 10 18 10.8 150.8 1004 0 2 -- Chart
1956 11 11 00 10.7 150.3 1003 0 2 -- Chart
1956 11 11 06 10.7 149.2 1003 0 2 -- Chart
1956 11 11 12 10.6 147.9 1003 0 9 -- Chart
1956 11 11 18 10.4 146.5 1003 0 9 -- Chart
1956 11 12 00 11.1 145.2 1002 0 9 -- Chart
1956 11 12 06 12.1 144.2 1001 0 9 -- Chart
1956 11 12 12 12.5 143.1 1001 0 9 -- Chart
1956 11 12 18 12.8 141.8 1001 0 9 -- Chart
1956 11 13 00 13.7 140.5 1001 0 9 -- Chart
1956 11 13 06 14.5 138.9 995 0 9 -- Chart
1956 11 13 12 14.8 136.5 992 0 9 -- Chart
1956 11 13 18 14.8 134.2 992 0 9 -- Chart
1956 11 14 00 14.8 131.9 990 0 9 -- Chart
1956 11 14 06 16.0 129.6 990 0 9 -- Chart
1956 11 14 12 16.7 127.2 985 0 9 -- Chart
1956 11 14 18 16.4 125.3 985 0 9 -- Chart
1956 11 15 00 16.0 124.0 980 0 9 -- Chart
1956 11 15 06 16.3 123.1 975 0 9 -- Chart
1956 11 15 12 16.2 121.9 980 0 9 -- Chart
1956 11 15 18 15.8 120.5 985 0 9 -- Chart
1956 11 16 00 14.7 120.0 990 0 9 -- Chart
1956 11 16 06 14.6 119.5 990 0 9 -- Chart
1956 11 16 12 14.3 118.9 990 0 9 -- Chart
1956 11 16 18 13.7 118.3 990 0 9 -- Chart
1956 11 17 00 13.3 117.8 990 0 9 -- Chart
1956 11 17 06 13.2 117.4 990 0 9 -- Chart
1956 11 17 12 12.9 117.0 990 0 9 -- Chart
1956 11 17 18 12.7 116.9 990 0 9 -- Chart
1956 11 18 00 12.5 116.6 995 0 9 -- Chart
1956 11 18 06 13.2 116.2 1000 0 9 -- Chart
1956 11 18 12 13.4 116.0 1002 0 9 -- Chart
1956 11 18 18 13.7 115.7 1002 0 9 -- Chart
1956 11 19 00 13.9 115.4 1004 0 9 -- Chart
1956 11 19 06 14.2 115.0 1004 0 9 -- Chart
1956 11 19 12 14.5 114.9 1004 0 9 -- Chart
1956 11 19 18 14.3 114.2 1004 0 9 -- Chart
1956 11 20 00 14.2 113.5 1004 0 9 -- Chart
1956 11 20 06 14.2 113.0 1004 0 9 -- Chart
1956 11 20 12 14.3 113.0 1004 0 9 -- Chart
1956 11 20 18 14.4 113.4 1004 0 2 -- Chart
1956 11 21 00 14.6 113.7 1004 0 2 -- Chart
1956 11 21 06 14.7 114.0 1004 0 2 -- Chart
1956 11 21 12 14.8 114.3 1004 0 2 -- Chart
1956 11 21 18 14.9 114.7 1006 0 2 -- Chart
1956 11 22 00 15.0 115.0 1006 0 2 -- Chart
1956 11 22 06 15.0 115.0 1006 0 2 -- Chart
1956 11 22 12 15.0 115.0 1006 0 2 -- Chart
1956 11 22 18 15.0 115.0 1006 0 2 -- Chart
Japan Meteorological Agency Best Track Data | Correction Date : 1989-06-01
< Typhoon 195618 1956 Season Typhoon 195620 >

Help